Shawnee, Ohio
Current Conditions -  °F | °C
As of 11:53 PM on Friday 19 Dec 2014 (Local Time) from KLHQ Reporting Station
Overcast Overcast  
Wind Chill: 33°   Ceiling: 1600
Heat Index: 37°   Visibility: 9mi
Dew Point: 23°   Wind: 5mph
Humidity: 57%   Direction: 80°E
Pressure: 30.26"   Gusts: NA
Location:  39.6°N, 82.21°W
Report Text: KLHQ 200453Z AUTO 08004KT 9SM OVC016 03/M05 A3026 RMK AO2 SLP256 T00281050 400781017
Loading
Personal Weather Stations






























Interactive Weather Map New forecast layout! Learn more

10-Day Weather Forecast

Advertisements
Track Severe Weather on mobile